Time;durP1;ratioP1;P1;durP2;ratioP2;P2;SDS_P1;SDS_P2;PMS_P1;PMS_P2;Temp;Humidity;BMP_temperature;BMP_pressure;BME280_temperature;BME280_humidity;BME280_pressure;Samples;Min_cycle;Max_cycle;Signal;HPM_P1;HPM_P2
2023/01/29 00:02:26;;;;;;;12.50;4.33;;;;;;;1.11;98.99;97198.00;5037534;28;20204;-67
2023/01/29 00:04:53;;;;;;;8.30;3.90;;;;;;;1.17;99.70;97196.78;5034419;28;20201;-68
2023/01/29 00:07:19;;;;;;;10.67;4.80;;;;;;;0.95;100.00;97201.66;5036220;28;20254;-67
2023/01/29 00:09:46;;;;;;;12.80;4.53;;;;;;;1.08;100.00;97216.34;5037769;28;20638;-68
2023/01/29 00:12:12;;;;;;;6.63;3.20;;;;;;;1.18;100.00;97225.22;5036689;28;20279;-67
2023/01/29 00:14:38;;;;;;;7.30;3.93;;;;;;;1.13;99.91;97221.25;5035498;28;20204;-68
2023/01/29 00:17:06;;;;;;;12.50;4.90;;;;;;;1.22;100.00;97230.13;5037015;28;20582;-67
2023/01/29 00:19:33;;;;;;;7.13;3.97;;;;;;;1.09;100.00;97230.16;5037268;28;20232;-67
2023/01/29 00:21:59;;;;;;;8.03;4.13;;;;;;;1.09;100.00;97230.16;5036888;28;20207;-67
2023/01/29 00:24:25;;;;;;;9.33;4.50;;;;;;;1.15;99.54;97232.38;5036657;28;20695;-68
2023/01/29 00:26:52;;;;;;;6.43;3.80;;;;;;;1.05;100.00;97228.69;5036951;28;20270;-68
2023/01/29 00:29:18;;;;;;;11.67;4.90;;;;;;;1.04;100.00;97234.81;5036818;28;20279;-67
2023/01/29 00:31:45;;;;;;;11.77;4.43;;;;;;;0.97;99.58;97234.34;5037322;28;20250;-68
2023/01/29 00:34:13;;;;;;;14.93;4.83;;;;;;;1.13;100.00;97222.06;5035661;28;20204;-67
2023/01/29 00:36:40;;;;;;;9.03;4.63;;;;;;;1.14;100.00;97223.75;5036771;28;20197;-68
2023/01/29 00:39:09;;;;;;;7.70;4.20;;;;;;;1.09;100.00;97236.19;5036222;28;20274;-68
2023/01/29 00:47:01;;;;;;;10.57;4.93;;;;;;;1.06;100.00;97220.81;5027211;28;20202;-68
2023/01/29 00:49:29;;;;;;;13.63;4.93;;;;;;;1.13;100.00;97226.44;5036743;28;20883;-67
2023/01/29 00:54:40;;;;;;;10.50;4.27;;;;;;;1.05;100.00;97234.72;5035557;28;20588;-67
2023/01/29 00:57:06;;;;;;;9.67;4.60;;;;;;;1.05;100.00;97228.69;5036612;28;20205;-68
2023/01/29 00:59:32;;;;;;;12.50;4.70;;;;;;;1.07;99.85;97226.81;5036399;28;20229;-67
2023/01/29 01:04:44;;;;;;;9.93;4.63;;;;;;;1.16;99.15;97215.84;5035395;28;20212;-68
2023/01/29 01:07:11;;;;;;;9.47;4.63;;;;;;;1.05;99.53;97226.09;5035196;28;20197;-67
2023/01/29 01:12:30;;;;;;;7.97;3.97;;;;;;;1.22;99.37;97211.97;5010977;28;20267;-68
2023/01/29 01:14:56;;;;;;;11.63;4.57;;;;;;;1.09;99.45;97219.78;5035124;28;20208;-67
2023/01/29 01:17:23;;;;;;;8.17;4.00;;;;;;;1.04;98.47;97211.44;5036027;28;20205;-68
2023/01/29 01:19:51;;;;;;;10.93;5.47;;;;;;;1.13;99.82;97216.88;5035858;28;20259;-67
2023/01/29 01:22:17;;;;;;;10.13;4.30;;;;;;;1.04;99.32;97221.84;5035766;28;20197;-66
2023/01/29 01:24:44;;;;;;;9.77;4.57;;;;;;;0.99;98.85;97223.88;5035219;28;20294;-68
2023/01/29 01:27:10;;;;;;;9.87;4.13;;;;;;;0.98;99.70;97217.00;5035804;28;20208;-68
2023/01/29 01:29:36;;;;;;;9.53;4.43;;;;;;;0.96;99.44;97216.28;5036425;28;20229;-67
2023/01/29 01:32:03;;;;;;;9.47;4.40;;;;;;;1.08;99.34;97213.75;5035549;28;20229;-67
2023/01/29 01:34:29;;;;;;;12.40;4.33;;;;;;;1.09;99.86;97209.41;5035116;28;20258;-67
2023/01/29 01:36:57;;;;;;;9.27;3.97;;;;;;;0.99;99.11;97203.94;5036773;28;20931;-67
2023/01/29 01:39:24;;;;;;;10.13;4.33;;;;;;;1.05;98.62;97198.38;5036353;28;20236;-68
2023/01/29 01:41:52;;;;;;;7.90;4.10;;;;;;;1.08;100.00;97197.34;5036351;28;20208;-68
2023/01/29 01:44:51;;;;;;;9.30;4.30;;;;;;;1.24;100.00;97204.91;5035439;28;20221;-67
2023/01/29 01:47:22;;;;;;;10.00;4.90;;;;;;;1.16;100.00;97195.94;5035744;28;20205;-68
2023/01/29 01:49:48;;;;;;;10.23;4.80;;;;;;;1.09;100.00;97204.22;5035962;28;20225;-68
2023/01/29 01:52:17;;;;;;;11.47;4.97;;;;;;;1.22;100.00;97201.59;5036177;28;20485;-68
2023/01/29 01:54:44;;;;;;;10.43;4.87;;;;;;;1.08;100.00;97205.13;5035005;28;20217;-68
2023/01/29 01:57:15;;;;;;;8.73;4.60;;;;;;;1.21;100.00;97205.09;5035540;28;20201;-67
2023/01/29 01:59:46;;;;;;;10.57;4.97;;;;;;;0.94;100.00;97205.16;5035920;28;20316;-68
2023/01/29 02:10:36;;;;;;;14.63;5.30;;;;;;;1.00;100.00;97197.00;5035189;28;20605;-68
2023/01/29 02:13:03;;;;;;;12.67;5.47;;;;;;;0.89;100.00;97197.69;5034952;28;20233;-68
2023/01/29 02:15:30;;;;;;;10.03;4.57;;;;;;;0.95;100.00;97194.69;5034604;28;20209;-67
2023/01/29 02:17:56;;;;;;;13.53;5.53;;;;;;;0.96;100.00;97192.94;5034850;28;20216;-68
2023/01/29 02:20:26;;;;;;;7.47;4.17;;;;;;;1.07;100.00;97200.88;5034988;28;20225;-67
2023/01/29 02:23:16;;;;;;;13.13;4.60;;;;;;;1.16;100.00;97193.34;5035390;28;20209;-68
2023/01/29 02:26:04;;;;;;;11.07;4.97;;;;;;;1.22;100.00;97188.59;5034358;28;20206;-67
2023/01/29 02:28:43;;;;;;;9.87;4.93;;;;;;;1.22;100.00;97193.78;5037268;28;20206;-68
2023/01/29 02:31:15;;;;;;;9.57;4.77;;;;;;;1.22;100.00;97191.19;5038849;28;20592;-67
2023/01/29 02:33:54;;;;;;;10.47;4.90;;;;;;;1.30;100.00;97194.13;5037442;28;20229;-68
2023/01/29 02:36:31;;;;;;;14.90;5.43;;;;;;;1.35;100.00;97191.22;5038504;28;20272;-67
2023/01/29 02:39:08;;;;;;;11.20;4.83;;;;;;;1.45;100.00;97207.88;5038918;28;20807;-67
2023/01/29 02:41:42;;;;;;;8.97;4.30;;;;;;;1.28;98.32;97202.94;5038434;28;20209;-67
2023/01/29 02:44:18;;;;;;;11.50;4.73;;;;;;;1.32;98.75;97202.66;5037142;28;20248;-67
2023/01/29 02:46:52;;;;;;;8.37;4.20;;;;;;;1.20;98.96;97205.19;5039300;28;20205;-67
2023/01/29 02:49:24;;;;;;;12.13;4.20;;;;;;;1.18;98.63;97203.63;5037969;28;20233;-67
2023/01/29 02:52:00;;;;;;;10.17;4.30;;;;;;;1.09;98.37;97204.22;5038471;28;20217;-67
2023/01/29 02:54:33;;;;;;;9.13;4.87;;;;;;;1.06;98.49;97199.19;5037473;28;20297;-66
2023/01/29 02:57:05;;;;;;;13.37;5.20;;;;;;;1.15;98.45;97196.06;5037795;28;20205;-66
2023/01/29 02:59:39;;;;;;;10.30;4.70;;;;;;;1.09;99.27;97209.41;5037984;28;20779;-66
2023/01/29 03:02:10;;;;;;;12.00;5.10;;;;;;;1.06;98.85;97200.06;5038118;28;20931;-67
2023/01/29 03:04:44;;;;;;;12.83;5.33;;;;;;;1.06;99.47;97199.19;5036943;28;20205;-67
2023/01/29 03:07:39;;;;;;;13.23;5.70;;;;;;;1.23;99.44;97205.00;5037744;28;20207;-67
2023/01/29 03:10:09;;;;;;;10.43;4.57;;;;;;;1.19;99.98;97201.75;5038159;28;20225;-67
2023/01/29 03:12:39;;;;;;;10.60;4.77;;;;;;;1.28;99.56;97205.53;5037892;28;20225;-66
2023/01/29 03:15:11;;;;;;;9.50;4.30;;;;;;;1.31;99.01;97201.00;5037700;28;20205;-67
2023/01/29 03:17:41;;;;;;;12.50;5.27;;;;;;;1.24;99.46;97194.50;5038122;28;20213;-67
2023/01/29 03:20:14;;;;;;;11.80;4.50;;;;;;;1.30;99.16;97204.50;5037698;28;20217;-67
2023/01/29 03:22:45;;;;;;;10.13;4.40;;;;;;;1.32;99.72;97210.44;5038018;28;20205;-67
2023/01/29 03:33:42;;;;;;;11.27;4.40;;;;;;;1.20;99.33;97208.63;5037201;28;20306;-67
2023/01/29 03:36:13;;;;;;;13.77;4.70;;;;;;;1.16;99.49;97208.06;5037083;28;20915;-66
2023/01/29 03:38:39;;;;;;;8.97;4.83;;;;;;;1.18;98.97;97208.81;5037791;28;20198;-68
2023/01/29 03:41:13;;;;;;;10.17;4.13;;;;;;;1.28;99.38;97206.34;5038179;28;20581;-67
2023/01/29 03:43:47;;;;;;;10.33;4.80;;;;;;;1.32;98.46;97205.25;5036796;28;20207;-68
2023/01/29 03:46:27;;;;;;;9.50;4.30;;;;;;;1.25;98.84;97203.97;5037939;28;20230;-67
2023/01/29 03:49:00;;;;;;;12.77;4.57;;;;;;;1.14;98.27;97207.34;5037979;28;20236;-66
2023/01/29 03:51:33;;;;;;;9.20;4.80;;;;;;;1.05;98.77;97203.56;5038391;28;20426;-66
2023/01/29 03:54:07;;;;;;;11.60;5.40;;;;;;;1.08;100.00;97197.34;5036481;28;20780;-67
2023/01/29 03:56:42;;;;;;;11.97;4.53;;;;;;;1.16;100.00;97200.28;5034759;28;20261;-67
2023/01/29 03:59:20;;;;;;;10.17;4.30;;;;;;;1.12;99.67;97204.00;5037792;28;20224;-66
2023/01/29 04:01:54;;;;;;;11.03;4.43;;;;;;;1.19;99.60;97211.31;5037206;28;20672;-67
2023/01/29 04:04:24;;;;;;;10.70;5.30;;;;;;;1.18;99.83;97207.03;5037445;28;20208;-68
2023/01/29 04:06:55;;;;;;;10.97;5.17;;;;;;;1.18;99.17;97201.03;5037736;28;20291;-67
2023/01/29 04:09:27;;;;;;;10.43;4.50;;;;;;;1.14;99.84;97209.94;5037346;28;20270;-67
2023/01/29 04:12:00;;;;;;;13.13;5.83;;;;;;;1.17;99.82;97202.78;5037339;28;20205;-67
2023/01/29 04:14:27;;;;;;;12.00;4.93;;;;;;;0.95;100.00;97212.03;5036897;28;20205;-67
2023/01/29 04:17:00;;;;;;;11.30;4.90;;;;;;;1.05;99.78;97203.56;5036916;28;20201;-67
2023/01/29 04:19:27;;;;;;;11.03;5.03;;;;;;;1.03;100.00;97202.00;5037663;28;20233;-66
2023/01/29 04:22:03;;;;;;;14.00;4.63;;;;;;;1.12;99.15;97198.81;5037116;28;20209;-67
2023/01/29 04:24:30;;;;;;;8.23;4.43;;;;;;;0.94;99.60;97205.16;5036210;28;20213;-67
2023/01/29 04:27:06;;;;;;;10.97;4.50;;;;;;;1.03;100.00;97207.19;5037296;28;20209;-66
2023/01/29 04:29:43;;;;;;;9.87;4.33;;;;;;;0.98;100.00;97197.09;5037711;28;20233;-67
2023/01/29 04:32:17;;;;;;;12.60;5.50;;;;;;;1.05;99.95;97202.75;5036714;28;20220;-67
2023/01/29 04:35:00;;;;;;;10.63;5.13;;;;;;;1.01;99.35;97204.69;5036453;28;20197;-67
2023/01/29 04:37:36;;;;;;;11.93;4.70;;;;;;;0.89;100.00;97207.22;5037053;28;20311;-67
2023/01/29 04:40:18;;;;;;;11.53;5.43;;;;;;;0.95;100.00;97212.03;5036415;28;20339;-66
2023/01/29 04:42:50;;;;;;;14.27;6.03;;;;;;;1.00;100.00;97204.78;5037026;28;20596;-67
2023/01/29 04:45:24;;;;;;;11.33;5.47;;;;;;;0.93;100.00;97209.53;5036255;28;20209;-67
2023/01/29 04:48:02;;;;;;;21.10;6.37;;;;;;;0.91;100.00;97220.94;5036888;28;20200;-67
2023/01/29 04:50:35;;;;;;;12.87;5.03;;;;;;;0.93;100.00;97219.06;5036615;28;20229;-67
2023/01/29 04:53:07;;;;;;;15.47;5.27;;;;;;;1.04;99.84;97212.28;5036147;28;20229;-67
2023/01/29 04:55:41;;;;;;;11.43;4.93;;;;;;;1.07;100.00;97206.06;5035897;28;20224;-67
2023/01/29 04:58:14;;;;;;;13.13;5.50;;;;;;;1.14;100.00;97199.56;5036508;28;20297;-66
2023/01/29 05:00:42;;;;;;;14.40;5.97;;;;;;;1.17;100.00;97207.16;5036760;28;20232;-67
2023/01/29 05:03:13;;;;;;;13.83;6.03;;;;;;;1.21;99.48;97212.06;5036067;28;20656;-67
2023/01/29 05:05:42;;;;;;;14.07;5.63;;;;;;;1.28;99.67;97214.16;5035708;28;20202;-67
2023/01/29 05:08:12;;;;;;;13.17;5.47;;;;;;;1.32;100.00;97218.25;5036415;28;20202;-67
2023/01/29 05:10:39;;;;;;;14.13;5.87;;;;;;;1.34;99.18;97210.34;5036201;28;20229;-66
2023/01/29 05:13:10;;;;;;;11.60;4.90;;;;;;;1.37;98.16;97216.16;5036785;28;20225;-67
2023/01/29 05:15:40;;;;;;;10.93;5.50;;;;;;;1.39;98.93;97222.09;5035879;28;20205;-67
2023/01/29 05:18:07;;;;;;;9.07;4.80;;;;;;;1.27;99.40;97235.03;5035998;28;20201;-67
2023/01/29 05:20:37;;;;;;;13.53;5.47;;;;;;;1.32;99.19;97231.22;5036405;28;20278;-67
2023/01/29 05:23:04;;;;;;;11.50;4.93;;;;;;;1.13;99.52;97223.84;5036486;28;20197;-67
2023/01/29 05:25:32;;;;;;;13.67;6.00;;;;;;;1.13;99.60;97226.44;5035230;28;20601;-67
2023/01/29 05:28:04;;;;;;;12.27;5.57;;;;;;;1.04;97.74;97221.84;5036058;28;20205;-67
2023/01/29 05:30:32;;;;;;;13.57;5.70;;;;;;;0.80;99.85;97231.13;5036450;28;20283;-67
2023/01/29 05:32:59;;;;;;;14.27;6.03;;;;;;;0.93;100.00;97227.69;5036245;28;20225;-67
2023/01/29 05:35:27;;;;;;;14.40;5.67;;;;;;;0.98;100.00;97214.41;5035225;28;20212;-67
2023/01/29 05:37:55;;;;;;;13.37;5.73;;;;;;;0.94;100.00;97218.13;5035992;28;20708;-67
2023/01/29 05:40:21;;;;;;;17.30;5.97;;;;;;;0.91;100.00;97210.56;5035904;28;20306;-66
2023/01/29 05:42:48;;;;;;;12.87;5.77;;;;;;;0.89;99.59;97217.59;5036593;28;20219;-67
2023/01/29 05:45:14;;;;;;;12.57;5.40;;;;;;;0.85;99.00;97216.13;5035495;28;20229;-67
2023/01/29 05:47:41;;;;;;;14.37;5.93;;;;;;;0.82;99.20;97216.31;5035987;28;20210;-66
2023/01/29 05:50:08;;;;;;;13.07;5.90;;;;;;;0.89;99.54;97208.06;5036363;28;20236;-67
2023/01/29 05:52:35;;;;;;;14.03;5.43;;;;;;;0.90;100.00;97208.88;5036107;28;20231;-68
2023/01/29 05:55:03;;;;;;;13.07;5.60;;;;;;;1.05;100.00;97203.56;5035106;28;20216;-67
2023/01/29 05:57:30;;;;;;;11.23;5.17;;;;;;;1.06;100.00;97204.38;5036095;28;20201;-66
2023/01/29 05:59:56;;;;;;;12.93;5.87;;;;;;;1.09;100.00;97210.22;5035999;28;20608;-67
2023/01/29 06:02:23;;;;;;;14.77;5.77;;;;;;;1.11;100.00;97208.38;5038280;28;20201;-67
2023/01/29 06:04:50;;;;;;;16.30;6.17;;;;;;;1.12;99.82;97210.06;5039741;28;20201;-66
2023/01/29 06:07:18;;;;;;;12.90;6.03;;;;;;;1.07;100.00;97209.50;5039245;28;20202;-67
2023/01/29 06:09:44;;;;;;;12.70;5.63;;;;;;;1.05;100.00;97219.13;5039359;28;20843;-67
2023/01/29 06:12:12;;;;;;;15.37;6.07;;;;;;;0.96;100.00;97218.88;5040255;28;20212;-67
2023/01/29 06:14:39;;;;;;;13.23;6.10;;;;;;;0.91;100.00;97220.94;5038823;28;20894;-66
2023/01/29 06:17:05;;;;;;;12.10;5.73;;;;;;;0.77;100.00;97213.16;5039088;28;20206;-67
2023/01/29 06:19:32;;;;;;;14.03;5.47;;;;;;;0.80;100.00;97215.56;5039462;28;20228;-67
2023/01/29 06:21:58;;;;;;;10.93;5.10;;;;;;;0.78;100.00;97214.84;5039888;28;20229;-66
2023/01/29 06:24:25;;;;;;;13.43;5.83;;;;;;;0.78;100.00;97205.28;5038966;28;20202;-67
2023/01/29 06:26:51;;;;;;;13.43;6.40;;;;;;;0.58;99.96;97212.63;5039101;28;20204;-66
2023/01/29 06:29:19;;;;;;;10.53;5.40;;;;;;;0.72;100.00;97207.44;5039379;28;20728;-66
2023/01/29 06:31:45;;;;;;;11.17;4.70;;;;;;;0.64;99.47;97202.72;5039287;28;20220;-67
2023/01/29 06:34:12;;;;;;;11.97;6.00;;;;;;;0.64;100.00;97202.72;5038432;28;20233;-67
2023/01/29 06:36:40;;;;;;;11.00;5.13;;;;;;;0.68;100.00;97193.00;5039453;28;20209;-67
2023/01/29 06:39:07;;;;;;;13.87;5.30;;;;;;;0.63;100.00;97192.44;5039160;28;20236;-67
2023/01/29 06:41:34;;;;;;;15.93;6.23;;;;;;;0.77;100.00;97193.25;5039416;28;20205;-67
2023/01/29 06:44:00;;;;;;;15.53;6.30;;;;;;;0.81;99.97;97183.50;5038100;28;20204;-67
2023/01/29 06:46:28;;;;;;;16.93;5.93;;;;;;;0.82;100.00;97178.22;5039120;28;20208;-67
2023/01/29 06:48:58;;;;;;;15.83;7.03;;;;;;;0.86;99.48;97186.66;5038419;28;20239;-67
2023/01/29 06:51:24;;;;;;;13.83;5.37;;;;;;;0.85;99.11;97190.16;5039427;28;20201;-67
2023/01/29 06:53:53;;;;;;;16.40;6.73;;;;;;;0.87;98.94;97185.75;5037885;28;20225;-67
2023/01/29 06:56:19;;;;;;;13.20;6.50;;;;;;;0.95;98.84;97191.28;5038736;28;20328;-67
2023/01/29 06:58:46;;;;;;;12.80;5.53;;;;;;;0.92;98.25;97191.47;5038822;28;20236;-67
2023/01/29 07:01:13;;;;;;;20.13;7.93;;;;;;;0.91;98.65;97200.19;5038573;28;20212;-67
2023/01/29 07:03:42;;;;;;;20.77;7.43;;;;;;;1.00;98.23;97197.00;5038548;28;20653;-67
2023/01/29 07:06:09;;;;;;;15.57;6.70;;;;;;;1.06;99.67;97199.19;5038632;28;20208;-67
2023/01/29 07:08:36;;;;;;;13.97;6.30;;;;;;;1.08;97.50;97205.13;5038323;28;20205;-67
2023/01/29 07:11:03;;;;;;;12.77;5.43;;;;;;;1.11;96.75;97210.13;5038788;28;20213;-67
2023/01/29 07:13:29;;;;;;;11.43;5.97;;;;;;;1.11;96.71;97215.31;5037558;28;20607;-67
2023/01/29 07:15:59;;;;;;;17.37;5.90;;;;;;;1.07;97.22;97213.84;5038184;28;20208;-67
2023/01/29 07:18:25;;;;;;;13.33;6.13;;;;;;;1.02;96.15;97208.97;5038135;28;20275;-67
2023/01/29 07:20:53;;;;;;;12.33;5.50;;;;;;;1.09;97.18;97204.22;5038435;28;20205;-67
2023/01/29 07:23:20;;;;;;;9.93;4.67;;;;;;;1.04;98.22;97211.44;5038996;28;20982;-67
2023/01/29 07:25:48;;;;;;;12.60;5.13;;;;;;;1.14;98.75;97218.56;5036940;28;20217;-67
2023/01/29 07:28:15;;;;;;;9.30;4.63;;;;;;;2.67;100.00;97215.09;5036343;28;20197;-67
2023/01/29 07:30:41;;;;;;;16.90;8.15;;;;;;;1.92;95.46;97209.03;5033071;28;21439;-67
2023/01/29 07:33:10;;;;;;;14.93;6.63;;;;;;;2.07;96.14;97202.84;5035494;28;20693;-67
2023/01/29 07:35:38;;;;;;;17.57;7.83;;;;;;;1.82;93.98;97200.22;5036327;28;20199;-68
2023/01/29 07:38:06;;;;;;;17.90;6.77;;;;;;;1.71;93.54;97194.88;5036270;28;20208;-66
2023/01/29 07:40:32;;;;;;;19.30;7.80;;;;;;;1.64;95.01;97200.56;5036767;28;20718;-66
2023/01/29 07:43:00;;;;;;;18.50;6.90;;;;;;;1.55;95.42;97214.97;5036844;28;20217;-66
2023/01/29 07:45:26;;;;;;;15.97;6.87;;;;;;;1.54;95.88;97215.94;5035495;28;20698;-67
2023/01/29 07:47:54;;;;;;;13.33;6.00;;;;;;;1.56;94.97;97215.81;5037521;28;20227;-67
2023/01/29 07:50:20;;;;;;;14.43;5.70;;;;;;;1.63;95.45;97215.34;5036639;28;20228;-67
2023/01/29 07:52:47;;;;;;;15.30;6.00;;;;;;;1.70;95.50;97224.38;5037448;28;20206;-67
2023/01/29 07:55:15;;;;;;;14.77;6.20;;;;;;;1.80;95.22;97219.44;5037152;28;20219;-67
2023/01/29 07:57:42;;;;;;;14.00;5.53;;;;;;;1.79;94.96;97226.38;5037284;28;20209;-67
2023/01/29 08:00:10;;;;;;;15.27;6.73;;;;;;;1.78;93.64;97229.09;5037302;28;20221;-67
2023/01/29 08:02:37;;;;;;;16.30;7.50;;;;;;;1.61;93.70;97230.16;5037529;28;20211;-67
2023/01/29 08:05:04;;;;;;;15.37;6.63;;;;;;;1.78;93.21;97221.28;5036589;28;20202;-67
2023/01/29 08:07:31;;;;;;;9.17;5.30;;;;;;;1.76;93.41;97223.13;5034380;28;20205;-67
2023/01/29 08:09:57;;;;;;;15.03;5.73;;;;;;;1.76;93.85;97223.13;5037190;28;20918;-67
2023/01/29 08:12:25;;;;;;;15.47;6.10;;;;;;;1.88;93.57;97230.97;5037666;28;20589;-67
2023/01/29 08:14:52;;;;;;;14.77;5.93;;;;;;;1.83;93.97;97235.63;5036318;28;20228;-67
2023/01/29 08:17:18;;;;;;;14.70;5.40;;;;;;;1.86;94.17;97236.28;5037139;28;20209;-67
2023/01/29 08:19:45;;;;;;;15.90;6.40;;;;;;;1.93;94.93;97229.72;5036869;28;20742;-67
2023/01/29 08:22:11;;;;;;;15.83;6.53;;;;;;;2.87;100.00;97246.63;5036760;28;20990;-67
2023/01/29 08:24:38;;;;;;;13.77;6.47;;;;;;;2.65;96.53;97248.22;5036460;28;20581;-67
2023/01/29 08:27:04;;;;;;;12.43;5.67;;;;;;;2.48;94.66;97248.50;5037097;28;20263;-67
2023/01/29 08:29:32;;;;;;;10.77;4.50;;;;;;;2.40;90.18;97249.97;5036846;28;20227;-67
2023/01/29 08:31:59;;;;;;;9.67;3.70;;;;;;;2.19;87.20;97244.44;5036103;28;20682;-67
2023/01/29 08:34:26;;;;;;;7.93;3.90;;;;;;;2.10;86.72;97250.25;5036344;28;20233;-67
2023/01/29 08:36:52;;;;;;;7.60;3.60;;;;;;;2.01;88.31;97244.81;5036753;28;20229;-67
2023/01/29 08:39:19;;;;;;;16.23;4.93;;;;;;;1.59;87.72;97251.97;5036580;28;20314;-67
2023/01/29 08:41:46;;;;;;;137.20;30.50;;;;;;;1.46;87.22;97246.72;5037066;28;20681;-67
2023/01/29 08:44:12;;;;;;;19.27;6.13;;;;;;;1.49;88.39;97256.94;5035854;28;20976;-67
2023/01/29 08:46:40;;;;;;;10.37;4.47;;;;;;;1.60;86.45;97253.66;5036253;28;20645;-67
2023/01/29 08:49:07;;;;;;;11.07;4.60;;;;;;;1.52;87.52;97261.09;5035396;28;20265;-67
2023/01/29 08:51:33;;;;;;;11.00;5.47;;;;;;;1.57;88.81;97259.06;5036821;28;20232;-67
2023/01/29 08:54:00;;;;;;;11.60;5.70;;;;;;;1.69;89.02;97259.06;5035889;28;20225;-67
2023/01/29 08:56:26;;;;;;;9.23;4.60;;;;;;;1.46;88.15;97251.91;5036830;28;20225;-67
2023/01/29 08:58:53;;;;;;;7.17;3.70;;;;;;;1.46;87.14;97254.53;5036448;28;20225;-67
2023/01/29 09:01:19;;;;;;;10.83;4.50;;;;;;;1.26;88.78;97257.56;5036356;28;20201;-67
2023/01/29 09:03:48;;;;;;;11.00;4.90;;;;;;;1.49;87.37;97250.91;5035488;28;20197;-67
2023/01/29 09:06:15;;;;;;;10.97;4.57;;;;;;;1.41;87.95;97258.34;5036429;28;20229;-67
2023/01/29 09:08:41;;;;;;;20.37;6.83;;;;;;;1.17;88.39;97259.88;5036135;28;20212;-67
2023/01/29 09:11:08;;;;;;;10.07;5.10;;;;;;;1.46;89.37;97262.31;5035348;28;20228;-67
2023/01/29 09:13:35;;;;;;;11.47;4.93;;;;;;;1.44;89.69;97269.38;5035274;28;20205;-67
2023/01/29 09:16:02;;;;;;;13.00;4.93;;;;;;;1.42;88.11;97265.22;5034678;28;20947;-67
2023/01/29 09:18:30;;;;;;;8.37;4.03;;;;;;;1.56;87.35;97270.38;5035542;28;20212;-67
2023/01/29 09:20:58;;;;;;;9.80;4.47;;;;;;;1.40;89.92;97273.09;5035389;28;20580;-67
2023/01/29 09:23:24;;;;;;;6.53;3.67;;;;;;;1.50;88.22;97278.53;5035829;28;20201;-67
2023/01/29 09:25:51;;;;;;;60.07;16.13;;;;;;;1.33;88.65;97279.59;5035601;28;20197;-67
2023/01/29 09:28:17;;;;;;;41.67;13.80;;;;;;;1.48;89.30;97280.41;5036184;28;20201;-67
2023/01/29 09:30:44;;;;;;;32.07;9.50;;;;;;;1.65;88.12;97277.56;5035777;28;20221;-67
2023/01/29 09:33:11;;;;;;;14.00;6.17;;;;;;;1.81;87.90;97273.91;5035998;28;20200;-66
2023/01/29 09:35:40;;;;;;;14.57;6.03;;;;;;;1.94;87.96;97285.16;5033470;28;20930;-67
2023/01/29 09:38:08;;;;;;;11.97;5.37;;;;;;;1.90;86.25;97283.69;5039713;28;20220;-67
2023/01/29 09:40:41;;;;;;;10.60;5.00;;;;;;;1.92;86.20;97280.06;5040241;28;20228;-67
2023/01/29 09:43:14;;;;;;;19.13;6.23;;;;;;;1.91;86.89;97295.75;5039625;28;20321;-67
2023/01/29 09:45:50;;;;;;;18.80;6.77;;;;;;;1.92;87.42;97293.06;5039850;28;20215;-67
2023/01/29 09:48:16;;;;;;;21.07;6.70;;;;;;;1.56;88.25;97297.16;5040259;28;20564;-67
2023/01/29 09:50:47;;;;;;;13.13;5.83;;;;;;;1.89;87.55;97302.81;5039699;28;20231;-68
2023/01/29 09:53:20;;;;;;;12.83;4.83;;;;;;;1.50;91.92;97305.38;5038998;28;21117;-67
2023/01/29 09:55:50;;;;;;;11.23;4.10;;;;;;;1.65;91.70;97296.56;5038838;28;20230;-67
2023/01/29 09:58:22;;;;;;;9.03;4.30;;;;;;;1.73;89.27;97298.69;5036786;28;20213;-67
2023/01/29 10:00:59;;;;;;;8.03;3.83;;;;;;;1.70;88.33;97301.50;5038878;28;20340;-67
2023/01/29 10:03:43;;;;;;;10.23;4.57;;;;;;;1.62;87.13;97296.78;5039625;28;20205;-67
2023/01/29 10:06:23;;;;;;;8.30;4.10;;;;;;;1.80;86.38;97282.63;5038701;28;20214;-68
2023/01/29 10:09:14;;;;;;;8.97;4.30;;;;;;;1.76;86.18;97283.75;5040158;28;20225;-69
2023/01/29 10:11:51;;;;;;;9.33;4.13;;;;;;;1.82;85.50;97267.78;5039871;28;20203;-69
2023/01/29 10:14:24;;;;;;;10.00;4.57;;;;;;;1.68;85.62;97269.56;5038397;28;20220;-69
2023/01/29 10:17:06;;;;;;;12.77;5.53;;;;;;;1.82;86.42;97265.16;5039632;28;20201;-69
2023/01/29 10:19:51;;;;;;;8.97;4.27;;;;;;;1.82;85.34;97254.78;5039869;28;20221;-68
2023/01/29 10:22:34;;;;;;;11.70;5.33;;;;;;;1.93;85.19;97249.69;5038613;28;20217;-69
2023/01/29 10:25:04;;;;;;;9.97;4.30;;;;;;;1.99;85.06;97254.50;5038190;28;20203;-68
2023/01/29 10:27:33;;;;;;;11.60;4.90;;;;;;;1.99;84.66;97264.91;5038976;28;20209;-69
2023/01/29 10:30:02;;;;;;;9.60;4.30;;;;;;;1.84;83.77;97261.50;5037656;28;20245;-69
2023/01/29 10:32:30;;;;;;;8.93;4.20;;;;;;;2.17;84.00;97251.50;5039318;28;20211;-69
2023/01/29 10:35:02;;;;;;;16.30;5.50;;;;;;;2.23;83.04;97250.25;5038602;28;20306;-69
2023/01/29 10:37:37;;;;;;;13.43;5.47;;;;;;;2.33;83.73;97241.75;5038841;28;20363;-69
2023/01/29 10:40:19;;;;;;;11.60;5.17;;;;;;;2.20;84.00;97247.88;5038483;28;20217;-69
2023/01/29 10:42:52;;;;;;;13.13;5.37;;;;;;;2.24;83.52;97233.72;5038688;28;20572;-69
2023/01/29 10:45:26;;;;;;;14.17;5.40;;;;;;;2.13;83.18;97233.63;5037933;28;20198;-68
2023/01/29 10:48:32;;;;;;;12.20;5.87;;;;;;;2.21;82.86;97233.94;5037612;28;20208;-68
2023/01/29 10:51:03;;;;;;;13.87;5.70;;;;;;;1.89;85.21;97232.66;5039393;28;20202;-69
2023/01/29 10:53:42;;;;;;;13.83;5.70;;;;;;;1.84;84.58;97232.94;5038223;28;20210;-68
2023/01/29 10:56:28;;;;;;;10.70;5.10;;;;;;;1.92;84.10;97227.22;5036026;28;20228;-69
2023/01/29 10:58:56;;;;;;;10.20;4.90;;;;;;;1.94;85.05;97230.56;5037972;28;20221;-68
2023/01/29 11:01:25;;;;;;;10.97;4.73;;;;;;;2.16;83.39;97230.81;5038679;28;20243;-69
2023/01/29 11:03:58;;;;;;;13.27;6.03;;;;;;;2.15;83.41;97226.53;5037931;28;20205;-68
2023/01/29 11:06:30;;;;;;;18.10;4.90;;;;;;;2.12;82.58;97219.78;5038120;28;20205;-69
2023/01/29 11:09:02;;;;;;;11.83;5.57;;;;;;;2.13;82.70;97220.63;5038303;28;20234;-69
2023/01/29 11:11:36;;;;;;;7.43;4.17;;;;;;;2.16;82.42;97217.81;5038773;28;20219;-69
2023/01/29 11:14:07;;;;;;;8.27;4.07;;;;;;;2.40;81.07;97216.16;5036969;28;20201;-69
2023/01/29 11:16:40;;;;;;;11.50;5.13;;;;;;;2.40;82.78;97217.00;5037011;28;20209;-69
2023/01/29 11:19:07;;;;;;;9.23;4.17;;;;;;;2.43;83.52;97221.97;5037819;28;20218;-69
2023/01/29 11:21:51;;;;;;;10.37;4.93;;;;;;;2.41;82.47;97224.69;5036855;28;20727;-68
2023/01/29 11:24:17;;;;;;;6.90;3.90;;;;;;;2.05;82.20;97228.94;5035698;28;20197;-68
2023/01/29 11:26:48;;;;;;;10.57;4.57;;;;;;;1.78;83.60;97222.09;5037069;28;20305;-69
2023/01/29 11:29:34;;;;;;;11.20;4.60;;;;;;;2.02;82.51;97213.53;5036096;28;20222;-69
2023/01/29 11:32:04;;;;;;;6.70;3.70;;;;;;;1.75;82.64;97196.34;5037494;28;20208;-68
2023/01/29 11:34:31;;;;;;;5.50;2.30;;;;;;;1.54;84.39;97205.53;5037014;28;20233;-69
2023/01/29 11:36:58;;;;;;;7.37;3.83;;;;;;;1.58;84.20;97203.56;5037583;28;20212;-68
2023/01/29 11:39:26;;;;;;;8.50;4.63;;;;;;;1.65;83.64;97203.06;5037380;28;20590;-68
2023/01/29 11:41:57;;;;;;;9.97;4.77;;;;;;;1.81;85.03;97204.56;5037316;28;20233;-68
2023/01/29 11:44:35;;;;;;;10.30;5.07;;;;;;;1.90;82.73;97200.53;5036948;28;20267;-68
2023/01/29 11:47:12;;;;;;;10.90;5.00;;;;;;;2.01;82.40;97198.03;5037611;28;20685;-68
2023/01/29 11:49:44;;;;;;;11.33;5.03;;;;;;;2.17;83.95;97203.88;5037812;28;20232;-69
2023/01/29 11:52:12;;;;;;;12.00;4.60;;;;;;;2.07;82.02;97210.63;5037271;28;20208;-69
2023/01/29 11:54:46;;;;;;;11.47;5.33;;;;;;;2.16;81.78;97197.03;5036861;28;20229;-69
2023/01/29 11:57:30;;;;;;;8.67;4.47;;;;;;;2.41;81.57;97192.66;5036861;28;20197;-69
2023/01/29 12:00:00;;;;;;;12.93;5.13;;;;;;;2.46;82.19;97191.41;5036930;28;20225;-69
2023/01/29 12:02:31;;;;;;;8.20;4.00;;;;;;;2.22;82.50;97191.41;5038455;28;20202;-69
2023/01/29 12:05:01;;;;;;;12.17;5.03;;;;;;;2.21;82.02;97179.34;5036323;28;20211;-69
2023/01/29 12:07:30;;;;;;;11.30;5.50;;;;;;;2.47;81.91;97174.84;5036647;28;20875;-69
2023/01/29 12:09:58;;;;;;;14.23;5.60;;;;;;;2.65;81.55;97163.16;5036804;28;20229;-67
2023/01/29 12:12:32;;;;;;;12.33;6.00;;;;;;;2.37;82.81;97159.13;5037570;28;20691;-67
2023/01/29 12:15:23;;;;;;;11.57;5.73;;;;;;;2.60;82.21;97147.06;5035723;28;20233;-67
2023/01/29 12:18:06;;;;;;;15.73;6.70;;;;;;;2.68;82.21;97138.72;5033781;28;20624;-67
2023/01/29 12:20:38;;;;;;;13.37;5.87;;;;;;;2.65;82.00;97149.34;5037014;28;20231;-67